createdAt,value
2022-10-11T00:06:26.327Z,73.67
2022-10-11T00:16:32.015Z,74.00
2022-10-11T00:26:37.618Z,74.50
2022-10-11T00:36:43.233Z,74.74
2022-10-11T00:46:56.226Z,75.12
2022-10-11T00:57:06.405Z,75.23
2022-10-11T01:07:12.911Z,75.57
2022-10-11T01:17:25.918Z,75.92
2022-10-11T01:27:50.739Z,76.12
2022-10-11T01:38:04.018Z,76.59
2022-10-11T01:48:12.427Z,77.17
2022-10-11T01:58:32.740Z,77.49
2022-10-11T02:08:46.242Z,78.22
2022-10-11T02:18:56.812Z,78.53
2022-10-11T02:29:05.282Z,78.51
2022-10-11T02:39:19.675Z,78.77
2022-10-11T02:49:27.409Z,79.01
2022-10-11T02:59:33.044Z,79.48
2022-10-11T03:09:38.894Z,79.92
2022-10-11T03:19:44.638Z,80.03
2022-10-11T03:29:50.388Z,80.37
2022-10-11T03:39:56.151Z,80.97
2022-10-11T03:50:01.852Z,81.38
2022-10-11T04:00:10.290Z,82.24
2022-10-11T04:10:15.870Z,81.98
2022-10-11T04:20:21.558Z,82.38
2022-10-11T04:30:27.142Z,82.76
2022-10-11T04:40:32.800Z,82.73
2022-10-11T04:50:38.694Z,83.57
2022-10-11T05:00:44.478Z,84.37
2022-10-11T05:10:58.764Z,84.86
2022-10-11T05:21:06.821Z,85.13
2022-10-11T05:31:12.883Z,85.26
2022-10-11T05:41:18.671Z,85.36
2022-10-11T05:51:24.304Z,84.05
2022-10-11T06:01:30.608Z,82.56
2022-10-11T06:11:36.326Z,79.19
2022-10-11T06:21:41.950Z,79.36
2022-10-11T06:31:48.777Z,79.47
2022-10-11T06:41:54.341Z,79.63
2022-10-11T06:52:00.166Z,79.88
2022-10-11T07:02:05.753Z,80.19
2022-10-11T07:12:11.866Z,80.60
2022-10-11T07:22:17.541Z,80.93
2022-10-11T07:32:23.157Z,81.18
2022-10-11T07:42:28.913Z,81.56
2022-10-11T07:52:35.950Z,82.00
2022-10-11T08:02:41.573Z,81.71
2022-10-11T08:12:49.578Z,81.25
2022-10-11T08:22:55.190Z,80.78
2022-10-11T08:33:03.043Z,80.14
2022-10-11T08:43:26.877Z,78.54
2022-10-11T08:53:45.652Z,75.83
2022-10-11T09:03:52.227Z,74.18
2022-10-11T09:14:27.739Z,70.91
2022-10-11T09:24:47.427Z,69.55
2022-10-11T09:34:59.603Z,68.24
2022-10-11T09:45:15.612Z,66.61
2022-10-11T09:55:36.790Z,66.10
2022-10-11T10:05:42.481Z,64.60
2022-10-11T10:15:50.907Z,64.39
2022-10-11T10:26:13.395Z,63.16
2022-10-11T10:36:25.464Z,62.83
2022-10-11T10:46:46.569Z,62.46
2022-10-11T10:56:57.238Z,61.12
2022-10-11T11:07:14.371Z,61.81
2022-10-11T11:17:31.897Z,61.82
2022-10-11T11:27:51.784Z,60.34
2022-10-11T11:38:06.354Z,60.10
2022-10-11T11:48:19.653Z,59.55
2022-10-11T11:58:36.863Z,58.83
2022-10-11T12:08:45.611Z,58.96
2022-10-11T12:19:00.618Z,57.62
2022-10-11T12:29:43.424Z,57.55
2022-10-11T12:39:54.909Z,56.84
2022-10-11T12:50:14.292Z,56.03
2022-10-11T13:00:26.301Z,56.28
2022-10-11T13:10:36.968Z,56.06
2022-10-11T13:20:43.035Z,56.46
2022-10-11T13:30:52.330Z,56.39
2022-10-11T13:40:59.543Z,55.55
2022-10-11T13:51:09.968Z,55.55
2022-10-11T14:01:23.294Z,55.64
2022-10-11T14:11:40.276Z,55.81
2022-10-11T14:21:53.928Z,54.32
2022-10-11T14:32:03.973Z,54.85
2022-10-11T14:42:10.375Z,55.45
2022-10-11T14:52:16.312Z,55.92
2022-10-11T15:02:21.918Z,56.24
2022-10-11T15:12:27.582Z,55.98
2022-10-11T15:22:33.280Z,56.02
2022-10-11T15:32:38.937Z,56.28
2022-10-11T15:42:44.822Z,56.87
2022-10-11T15:52:50.724Z,57.45
2022-10-11T16:02:57.559Z,58.13
2022-10-11T16:13:03.290Z,59.18
2022-10-11T16:23:09.643Z,60.62
2022-10-11T16:33:15.642Z,61.88
2022-10-11T16:43:21.391Z,63.32
2022-10-11T16:53:27.347Z,64.52
2022-10-11T17:03:32.961Z,65.72
2022-10-11T17:13:38.626Z,66.71
2022-10-11T17:23:45.096Z,67.47
2022-10-11T17:33:50.707Z,68.19
2022-10-11T17:43:56.375Z,69.12
2022-10-11T17:54:02.151Z,69.64
2022-10-11T18:04:10.197Z,70.59
2022-10-11T18:14:16.211Z,71.51
2022-10-11T18:24:21.832Z,71.67
2022-10-11T18:34:27.500Z,71.78
2022-10-11T18:44:33.351Z,72.14
2022-10-11T18:54:39.064Z,72.50
2022-10-11T19:04:44.655Z,73.05
2022-10-11T19:14:50.562Z,73.59
2022-10-11T19:24:56.401Z,73.69
2022-10-11T19:35:02.248Z,74.01
2022-10-11T19:45:10.061Z,74.54
2022-10-11T19:55:15.082Z,74.70
2022-10-11T20:05:20.850Z,75.25
2022-10-11T20:15:26.485Z,75.98
2022-10-11T20:25:32.313Z,75.61
2022-10-11T20:35:38.115Z,76.01
2022-10-11T20:45:43.922Z,76.41
2022-10-11T20:55:50.046Z,76.73
2022-10-11T21:06:01.606Z,76.74
2022-10-11T21:16:10.856Z,76.73
2022-10-11T21:26:18.348Z,76.88
2022-10-11T21:36:23.425Z,77.00
2022-10-11T21:47:04.790Z,77.05
2022-10-11T21:56:56.539Z,77.60
2022-10-11T22:07:02.299Z,77.53
2022-10-11T22:17:07.977Z,77.86
2022-10-11T22:27:14.083Z,78.01
2022-10-11T22:37:19.638Z,78.07
2022-10-11T22:47:25.657Z,78.05
2022-10-11T22:57:31.284Z,78.01
2022-10-11T23:07:37.384Z,78.18
2022-10-11T23:17:43.665Z,78.23
2022-10-11T23:27:49.256Z,78.20
2022-10-11T23:37:56.669Z,78.73
2022-10-11T23:48:02.299Z,78.79
2022-10-11T23:58:08.068Z,78.79
